• Join FlightAware (Why Join?)
  • Login
  • US Flag 
04:00PM EDT


 

Airport Tracker/Info


-or-


 

Live Flight TrackerFlight Track Log ✈ KAP46 ✈ 17-Aug-2013 ✈ KALB - KMSS

Flight Track Log - Related Links

Times and Time Zones

All times are in EDT time to prevent confusion due to time zone crossing. See the KAP46 flight status page for this flight to view local times or setup timezone preferences in your user account.

Time Position Orientation Groundspeed Altitude Reporting Facility
EDT Latitude Longitude Course Direction KTS MPH feet Rate Location/Type
07:24PM 43.5025 -74.1575 341° North 149 171 6,500  Level Boston Center
07:25PM 43.5439 -74.1758 342° North 149 171 6,500  Level Boston Center
07:26PM 43.5872 -74.1972 340° North 149 171 6,500  Level Boston Center
07:27PM 43.6286 -74.2186 339° North 149 171 6,500  Level Boston Center
07:28PM 43.6700 -74.2369 342° North 154 177 6,500  Level Boston Center
07:29PM 43.6570 -74.2252 341° North  Level Estimated
07:29PM 43.7136 -74.2583 340° North 154 177 6,500  Level Boston Center
07:30PM 43.7589 -74.2797 341° North 154 177 6,500  Level Boston Center
07:31PM 43.7983 -74.2983 341° North 154 177 6,500  Level Boston Center
07:32PM 43.8439 -74.3169 344° North 159 183 6,500  Level Boston Center
07:33PM 43.8894 -74.3386 341° North 165 190 6,500  Level Boston Center
07:34PM 43.9328 -74.3572 343° North 165 190 6,500  Level Boston Center
07:35PM 43.9761 -74.3789 340° North 165 190 6,500  Level Boston Center
07:36PM 44.0194 -74.4006 340° North 165 190 6,500  Level Boston Center
07:37PM 44.0653 -74.4164 346° North 165 190 6,500  Level Boston Center
07:38PM 44.1086 -74.4322 345° North 165 190 6,500  Level Boston Center
07:39PM 44.1519 -74.4511 343° North 165 190 6,500  Level Boston Center
07:40PM 44.1975 -74.4728 341° North 165 190 6,500  Level Boston Center
07:41PM 44.2408 -74.4917 343° North 165 190 6,500  Level Boston Center
07:42PM 44.2844 -74.5136 340° North 165 190 6,500  Level Boston Center
07:43PM 44.3256 -74.5353 339° North 165 190 6,500  Level Boston Center
07:44PM 44.3814 -74.5606 342° North 165 190 6,500 -60 Level Boston Center
07:45PM 44.4269 -74.5797 343° North 165 190 6,400 -240 Descending Boston Center
07:46PM 44.4725 -74.5986 344° North 165 190 6,000 -420 Descending Boston Center
07:47PM 44.5281 -74.6242 342° North 171 197 5,500 -480 Descending Boston Center
07:48PM 44.5778 -74.6433 345° North 171 197 5,100 -480 Descending Boston Center
07:49PM 44.6275 -74.6656 342° North 176 203 4,600 -540 Descending Boston Center
07:51PM 44.6690 -74.6898 337° Northwest  Level FlightAware Approximate
07:58PM 44.9333 -74.8333 341° North  Level FlightAware Approximate
07:59PM 44.9362 -74.8451 341° North  Level Estimated
08:00PM 44.9362 -74.8451 341° North  Level Estimated
08:01PM 44.9362 -74.8451 341° North  Level Estimated
08:02PM 44.9362 -74.8451 341° North  Level Estimated
08:03PM 44.9362 -74.8451 341° North  Level Estimated
08:04PM 44.9362 -74.8451 341° North  Level Estimated
08:05PM 44.9362 -74.8451 341° North  Level Estimated
08:06PM 44.9362 -74.8451 341° North  Level Estimated
08:07PM 44.9362 -74.8451 341° North  Level Estimated
08:08PM 44.9362 -74.8451 341° North  Level Estimated
08:09PM 44.9362 -74.8451 341° North  Level Estimated
08:10PM 44.9362 -74.8451 341° North  Level Estimated
08:11PM 44.9362 -74.8451 341° North  Level Estimated
08:12PM 44.9362 -74.8451 341° North  Level Estimated
08:13PM 44.9362 -74.8451 341° North  Level Estimated
08:14PM 44.9362 -74.8451 341° North  Level Estimated
08:15PM 44.9362 -74.8451 341° North  Level Estimated
08:16PM 44.9362 -74.8451 341° North  Level Estimated